Time;durP1;ratioP1;P1;durP2;ratioP2;P2;SDS_P1;SDS_P2;PMS_P1;PMS_P2;Temp;Humidity;BMP_temperature;BMP_pressure;BME280_temperature;BME280_humidity;BME280_pressure;Samples;Min_cycle;Max_cycle;Signal;HPM_P1;HPM_P2
2023/09/28 00:00:38;;;;;;;;;16.33;15.00;;;;;;;;5021522;28;45345;-76
2023/09/28 00:03:05;;;;;;;;;12.67;12.67;;;;;;;;5020371;28;45362;-77
2023/09/28 00:05:30;;;;;;;;;13.67;13.33;;;;;;;;5021284;28;45341;-77
2023/09/28 00:07:55;;;;;;;;;14.33;12.00;;;;;;;;5021497;28;45356;-77
2023/09/28 00:10:21;;;;;;;;;16.00;14.67;;;;;;;;5021677;28;45262;-77
2023/09/28 00:12:46;;;;;;;;;15.00;14.33;;;;;;;;5020327;28;45262;-77
2023/09/28 00:15:11;;;;;;;;;17.00;15.25;;;;;;;;5021596;28;45569;-77
2023/09/28 00:17:40;;;;;;;;;14.00;14.00;;;;;;;;5021459;28;46284;-77
2023/09/28 00:20:09;;;;;;;;;13.00;13.00;;;;;;;;5019900;28;45377;-76
2023/09/28 00:22:34;;;;;;;;;12.33;11.67;;;;;;;;5020209;28;45225;-77
2023/09/28 00:24:59;;;;;;;;;14.33;14.33;;;;;;;;5036560;28;45526;-77
2023/09/28 00:27:25;;;;;;;;;14.67;14.33;;;;;;;;5041133;28;45336;-76
2023/09/28 00:29:50;;;;;;;;;15.00;15.00;;;;;;;;5041019;28;45379;-77
2023/09/28 00:32:16;;;;;;;;;14.67;13.33;;;;;;;;5041242;28;45269;-76
2023/09/28 00:34:41;;;;;;;;;14.67;14.33;;;;;;;;5040530;28;45320;-76
2023/09/28 00:37:07;;;;;;;;;13.67;13.67;;;;;;;;5022952;28;48037;-76
2023/09/28 00:39:32;;;;;;;;;14.00;14.00;;;;;;;;5041094;28;45297;-77
2023/09/28 00:41:57;;;;;;;;;14.67;14.67;;;;;;;;5041192;28;45257;-77
2023/09/28 00:44:22;;;;;;;;;15.33;15.33;;;;;;;;5040904;28;45336;-76
2023/09/28 00:46:48;;;;;;;;;14.33;14.00;;;;;;;;5040822;28;46206;-76
2023/09/28 00:49:16;;;;;;;;;16.67;16.67;;;;;;;;5040347;28;45148;-77
2023/09/28 00:51:42;;;;;;;;;14.67;14.00;;;;;;;;5039869;28;45480;-76
2023/09/28 00:54:07;;;;;;;;;13.67;13.67;;;;;;;;5039357;28;45591;-77
2023/09/28 00:56:36;;;;;;;;;15.00;14.33;;;;;;;;5040135;28;45273;-77
2023/09/28 00:59:01;;;;;;;;;16.67;16.67;;;;;;;;5040627;28;45382;-77
2023/09/28 01:01:27;;;;;;;;;15.33;15.33;;;;;;;;5040709;28;45295;-76
2023/09/28 01:03:52;;;;;;;;;15.00;14.67;;;;;;;;5040622;28;45509;-77
2023/09/28 01:06:17;;;;;;;;;17.00;16.00;;;;;;;;5022121;28;46986;-76
2023/09/28 01:08:43;;;;;;;;;15.00;14.67;;;;;;;;5040595;28;45230;-77
2023/09/28 01:11:08;;;;;;;;;14.00;13.33;;;;;;;;5040646;28;45395;-76
2023/09/28 01:13:33;;;;;;;;;16.00;14.33;;;;;;;;5038906;28;47096;-77
2023/09/28 01:15:59;;;;;;;;;12.67;12.67;;;;;;;;5022185;28;47064;-77
2023/09/28 01:18:24;;;;;;;;;14.00;14.00;;;;;;;;5039667;28;45525;-76
2023/09/28 01:20:51;;;;;;;;;14.33;11.67;;;;;;;;5040210;28;45348;-77
2023/09/28 01:23:17;;;;;;;;;12.00;12.00;;;;;;;;5040182;28;45352;-77
2023/09/28 01:25:46;;;;;;;;;14.33;14.33;;;;;;;;5034359;28;46586;-77
2023/09/28 01:28:11;;;;;;;;;12.00;12.00;;;;;;;;5021918;28;46012;-76
2023/09/28 01:30:36;;;;;;;;;13.00;13.00;;;;;;;;5002561;28;45249;-77
2023/09/28 01:33:02;;;;;;;;;13.67;13.00;;;;;;;;5020297;28;45353;-76
2023/09/28 01:35:28;;;;;;;;;12.67;12.67;;;;;;;;5019091;28;46116;-76
2023/09/28 01:38:00;;;;;;;;;13.00;12.00;;;;;;;;5020207;28;45281;-77
2023/09/28 01:40:25;;;;;;;;;14.00;14.00;;;;;;;;5020409;28;45341;-77
2023/09/28 01:42:50;;;;;;;;;14.33;14.33;;;;;;;;5018587;28;47068;-76
2023/09/28 01:45:15;;;;;;;;;12.67;12.00;;;;;;;;5020193;28;45354;-77
2023/09/28 01:47:40;;;;;;;;;13.67;13.33;;;;;;;;5020188;28;45159;-76
2023/09/28 01:50:06;;;;;;;;;13.33;13.33;;;;;;;;5020106;28;45333;-77
2023/09/28 01:52:31;;;;;;;;;11.33;10.67;;;;;;;;5019875;28;45276;-76
2023/09/28 01:54:56;;;;;;;;;13.33;12.00;;;;;;;;5019847;28;45227;-77
2023/09/28 01:57:22;;;;;;;;;11.67;11.67;;;;;;;;5018685;28;45297;-77
2023/09/28 01:59:47;;;;;;;;;13.33;13.33;;;;;;;;5019996;28;45346;-77
2023/09/28 02:02:12;;;;;;;;;13.33;12.00;;;;;;;;5019945;28;45210;-76
2023/09/28 02:04:37;;;;;;;;;12.33;12.33;;;;;;;;5018179;28;47004;-76
2023/09/28 02:07:04;;;;;;;;;14.00;12.67;;;;;;;;5018286;28;45277;-76
2023/09/28 02:09:29;;;;;;;;;12.67;12.67;;;;;;;;5019999;28;45365;-77
2023/09/28 02:11:54;;;;;;;;;13.33;13.33;;;;;;;;5019679;28;45608;-77
2023/09/28 02:14:19;;;;;;;;;14.00;11.33;;;;;;;;5019642;28;46128;-76
2023/09/28 02:16:45;;;;;;;;;13.00;12.33;;;;;;;;5001851;28;45352;-77
2023/09/28 02:19:10;;;;;;;;;11.67;11.67;;;;;;;;5019807;28;45220;-76
2023/09/28 02:21:36;;;;;;;;;13.00;13.00;;;;;;;;5019247;28;45316;-77
2023/09/28 02:24:01;;;;;;;;;13.00;11.00;;;;;;;;5019516;28;46732;-77
2023/09/28 02:26:26;;;;;;;;;13.50;13.50;;;;;;;;5018336;28;45629;-77
2023/09/28 02:28:52;;;;;;;;;13.00;13.00;;;;;;;;5019637;28;45591;-77
2023/09/28 02:31:17;;;;;;;;;17.00;14.00;;;;;;;;5018138;28;46041;-77
2023/09/28 02:33:43;;;;;;;;;15.33;13.00;;;;;;;;5019195;28;45341;-77
2023/09/28 02:36:08;;;;;;;;;17.00;16.67;;;;;;;;5018851;28;45406;-77
2023/09/28 02:38:33;;;;;;;;;14.00;14.00;;;;;;;;5019559;28;45222;-77
2023/09/28 02:40:59;;;;;;;;;15.67;15.33;;;;;;;;5019293;28;45421;-77
2023/09/28 02:43:24;;;;;;;;;13.67;12.33;;;;;;;;5019322;28;45322;-77
2023/09/28 02:45:49;;;;;;;;;13.33;13.33;;;;;;;;5019832;28;45214;-77
2023/09/28 02:48:15;;;;;;;;;15.67;13.67;;;;;;;;5021543;28;45306;-77
2023/09/28 02:50:40;;;;;;;;;14.00;13.67;;;;;;;;5022458;28;45261;-77
2023/09/28 02:53:05;;;;;;;;;13.00;12.33;;;;;;;;5022763;28;46358;-77
2023/09/28 02:55:32;;;;;;;;;12.67;12.33;;;;;;;;5021311;28;45676;-77
2023/09/28 02:57:57;;;;;;;;;13.33;13.00;;;;;;;;5004888;28;45301;-77
2023/09/28 03:02:49;;;;;;;;;13.67;13.33;;;;;;;;5022406;28;46035;-77
2023/09/28 03:05:18;;;;;;;;;14.33;13.67;;;;;;;;5022514;28;45398;-77
2023/09/28 03:07:43;;;;;;;;;13.00;13.00;;;;;;;;5022625;28;45434;-77
2023/09/28 03:10:10;;;;;;;;;12.33;11.67;;;;;;;;5022509;28;45614;-76
2023/09/28 03:12:35;;;;;;;;;13.67;12.67;;;;;;;;5022470;28;46216;-77
2023/09/28 03:15:04;;;;;;;;;13.33;12.00;;;;;;;;5022177;28;45335;-77
2023/09/28 03:17:29;;;;;;;;;15.67;13.67;;;;;;;;5022634;28;45273;-77
2023/09/28 03:19:54;;;;;;;;;11.67;11.67;;;;;;;;5022166;28;45297;-77
2023/09/28 03:22:20;;;;;;;;;12.33;11.67;;;;;;;;5022145;28;46559;-77
2023/09/28 03:24:46;;;;;;;;;12.67;12.33;;;;;;;;5022288;28;45288;-77
2023/09/28 03:27:11;;;;;;;;;11.67;11.67;;;;;;;;5022419;28;45392;-77
2023/09/28 03:29:37;;;;;;;;;12.33;12.33;;;;;;;;5033011;28;45352;-77
2023/09/28 03:32:02;;;;;;;;;13.00;12.33;;;;;;;;5042080;28;45517;-77
2023/09/28 03:34:27;;;;;;;;;11.00;11.00;;;;;;;;5041734;28;45376;-77
2023/09/28 03:36:52;;;;;;;;;14.00;13.67;;;;;;;;5024299;28;45289;-77
2023/09/28 03:39:18;;;;;;;;;9.00;9.00;;;;;;;;5042041;28;45476;-77
2023/09/28 03:41:43;;;;;;;;;12.67;10.67;;;;;;;;5042016;28;46019;-77
2023/09/28 03:44:09;;;;;;;;;14.33;13.00;;;;;;;;5042045;28;45315;-77
2023/09/28 03:46:34;;;;;;;;;12.00;11.00;;;;;;;;5040829;28;45302;-77
2023/09/28 03:48:59;;;;;;;;;10.67;10.67;;;;;;;;5040327;28;46328;-77
2023/09/28 03:51:25;;;;;;;;;13.00;13.00;;;;;;;;5041564;28;46527;-77
2023/09/28 03:53:50;;;;;;;;;13.33;12.33;;;;;;;;5041839;28;45211;-76
2023/09/28 03:56:15;;;;;;;;;10.67;10.33;;;;;;;;5041945;28;45265;-77
2023/09/28 03:58:41;;;;;;;;;9.00;9.00;;;;;;;;5041586;28;45367;-77
2023/09/28 04:01:07;;;;;;;;;14.33;12.67;;;;;;;;5023439;28;47156;-77
2023/09/28 04:03:33;;;;;;;;;8.67;8.67;;;;;;;;5023740;28;45676;-77
2023/09/28 04:05:59;;;;;;;;;12.33;11.33;;;;;;;;5041490;28;45482;-77
2023/09/28 04:08:24;;;;;;;;;11.00;11.00;;;;;;;;5041458;28;45293;-76
2023/09/28 04:10:50;;;;;;;;;11.00;11.00;;;;;;;;5041526;28;46384;-77
2023/09/28 04:13:16;;;;;;;;;12.00;11.50;;;;;;;;5041421;28;45320;-77
2023/09/28 04:15:41;;;;;;;;;11.00;11.00;;;;;;;;5041191;28;45301;-77
2023/09/28 04:18:08;;;;;;;;;13.00;11.33;;;;;;;;5041411;28;45423;-76
2023/09/28 04:20:33;;;;;;;;;11.33;11.33;;;;;;;;5041073;28;45413;-77
2023/09/28 04:22:58;;;;;;;;;14.00;12.00;;;;;;;;5041258;28;45313;-77
2023/09/28 04:25:26;;;;;;;;;13.67;12.00;;;;;;;;5039730;28;45187;-78
2023/09/28 04:27:51;;;;;;;;;12.33;12.33;;;;;;;;5038774;28;45223;-76
2023/09/28 04:30:16;;;;;;;;;14.33;14.00;;;;;;;;5038644;28;46549;-76
2023/09/28 04:32:42;;;;;;;;;11.33;11.33;;;;;;;;5041203;28;45273;-78
2023/09/28 04:35:10;;;;;;;;;12.67;12.00;;;;;;;;5027362;28;45255;-76
2023/09/28 04:37:35;;;;;;;;;9.67;9.67;;;;;;;;5002678;28;46048;-76
2023/09/28 04:40:00;;;;;;;;;9.00;9.00;;;;;;;;5019359;28;46877;-76
2023/09/28 04:42:26;;;;;;;;;11.67;11.67;;;;;;;;5020925;28;45372;-77
2023/09/28 04:44:51;;;;;;;;;12.67;12.00;;;;;;;;5020376;28;45423;-77
2023/09/28 04:47:17;;;;;;;;;13.00;12.67;;;;;;;;5020880;28;45514;-77
2023/09/28 04:49:42;;;;;;;;;12.33;12.00;;;;;;;;5020516;28;46167;-76
2023/09/28 04:52:10;;;;;;;;;12.00;12.00;;;;;;;;5020698;28;45377;-77
2023/09/28 04:54:35;;;;;;;;;12.00;12.00;;;;;;;;5021000;28;45325;-76
2023/09/28 04:57:00;;;;;;;;;12.67;12.33;;;;;;;;5020797;28;45301;-76
2023/09/28 04:59:27;;;;;;;;;13.67;11.33;;;;;;;;5019416;28;47046;-77
2023/09/28 05:01:52;;;;;;;;;15.67;14.33;;;;;;;;5019324;28;45214;-76
2023/09/28 05:04:17;;;;;;;;;20.33;18.67;;;;;;;;5002693;28;45299;-76
2023/09/28 05:06:42;;;;;;;;;27.00;24.33;;;;;;;;5020728;28;45136;-77
2023/09/28 05:09:08;;;;;;;;;26.00;23.33;;;;;;;;5018443;28;46986;-77
2023/09/28 05:11:34;;;;;;;;;23.67;21.00;;;;;;;;5002799;28;45275;-76
2023/09/28 05:13:59;;;;;;;;;26.00;22.33;;;;;;;;5020689;28;45289;-77
2023/09/28 05:16:25;;;;;;;;;23.00;22.00;;;;;;;;5002506;28;45909;-77
2023/09/28 05:18:50;;;;;;;;;31.33;24.67;;;;;;;;5019143;28;47270;-76
2023/09/28 05:21:16;;;;;;;;;25.33;23.00;;;;;;;;5019927;28;45328;-77
2023/09/28 05:23:42;;;;;;;;;17.00;16.33;;;;;;;;5020746;28;45372;-76
2023/09/28 05:26:07;;;;;;;;;9.67;8.00;;;;;;;;5020412;28;45372;-76
2023/09/28 05:28:32;;;;;;;;;14.00;13.00;;;;;;;;5002005;28;48184;-77
2023/09/28 05:30:57;;;;;;;;;16.33;12.33;;;;;;;;5020317;28;45358;-76
2023/09/28 05:33:23;;;;;;;;;10.33;8.00;;;;;;;;5002444;28;45374;-76
2023/09/28 05:35:48;;;;;;;;;9.33;6.67;;;;;;;;5019727;28;45340;-76
2023/09/28 05:38:13;;;;;;;;;6.33;5.33;;;;;;;;5020260;28;45400;-76
2023/09/28 05:40:38;;;;;;;;;7.67;5.00;;;;;;;;5020373;28;45334;-75
2023/09/28 05:43:04;;;;;;;;;5.00;4.00;;;;;;;;5021544;28;45248;-76
2023/09/28 05:45:29;;;;;;;;;6.00;5.00;;;;;;;;5020415;28;45210;-76
2023/09/28 05:47:56;;;;;;;;;5.00;3.00;;;;;;;;5020259;28;45191;-76
2023/09/28 05:50:21;;;;;;;;;6.33;6.00;;;;;;;;5020202;28;45395;-76
2023/09/28 05:52:48;;;;;;;;;4.33;4.00;;;;;;;;5018971;28;45403;-76
2023/09/28 05:55:14;;;;;;;;;7.00;6.00;;;;;;;;5020262;28;45281;-76
2023/09/28 05:57:39;;;;;;;;;8.00;7.00;;;;;;;;5020157;28;45286;-76
2023/09/28 06:00:08;;;;;;;;;6.67;4.33;;;;;;;;5019786;28;45309;-76
2023/09/28 06:02:34;;;;;;;;;4.67;3.67;;;;;;;;5019856;28;45313;-78
2023/09/28 06:04:59;;;;;;;;;4.33;4.00;;;;;;;;5019644;28;45377;-77
2023/09/28 06:07:25;;;;;;;;;5.67;4.33;;;;;;;;5001823;28;47397;-78
2023/09/28 06:09:50;;;;;;;;;2.67;2.67;;;;;;;;5020061;28;45372;-79
2023/09/28 06:12:15;;;;;;;;;2.33;1.67;;;;;;;;5019944;28;45333;-79
2023/09/28 06:14:40;;;;;;;;;3.67;3.67;;;;;;;;5019755;28;45431;-81
2023/09/28 06:17:05;;;;;;;;;8.33;3.00;;;;;;;;5001946;28;47264;-79
2023/09/28 06:19:31;;;;;;;;;6.00;6.00;;;;;;;;5019725;28;45309;-79
2023/09/28 06:21:57;;;;;;;;;5.00;5.00;;;;;;;;5011585;28;45143;-82
2023/09/28 06:24:22;;;;;;;;;6.00;5.00;;;;;;;;5001777;28;45296;-81
2023/09/28 06:26:49;;;;;;;;;7.00;5.67;;;;;;;;5002069;28;48127;-81
2023/09/28 06:29:14;;;;;;;;;7.00;4.33;;;;;;;;5018141;28;45289;-80
2023/09/28 06:31:39;;;;;;;;;5.67;3.00;;;;;;;;5019688;28;45272;-81
2023/09/28 06:34:06;;;;;;;;;5.67;3.00;;;;;;;;5005915;28;46222;-81
2023/09/28 06:36:32;;;;;;;;;2.33;1.00;;;;;;;;5035739;28;45929;-81
2023/09/28 06:38:57;;;;;;;;;5.75;2.50;;;;;;;;5001456;28;45789;-82
2023/09/28 06:41:23;;;;;;;;;2.33;2.33;;;;;;;;5001659;28;45296;-81
2023/09/28 06:43:48;;;;;;;;;6.33;2.33;;;;;;;;5019565;28;45471;-82
2023/09/28 06:46:14;;;;;;;;;4.75;4.75;;;;;;;;5001389;28;47044;-80
2023/09/28 06:48:39;;;;;;;;;4.00;3.00;;;;;;;;5002028;28;45331;-81
2023/09/28 06:51:05;;;;;;;;;3.33;3.00;;;;;;;;5038398;28;45308;-81
2023/09/28 06:53:30;;;;;;;;;6.00;4.33;;;;;;;;5038490;28;45601;-79
2023/09/28 06:55:59;;;;;;;;;6.00;3.33;;;;;;;;5039127;28;46320;-80
2023/09/28 06:58:24;;;;;;;;;7.00;7.00;;;;;;;;5039004;28;45335;-80
2023/09/28 07:00:50;;;;;;;;;6.33;5.00;;;;;;;;5039045;28;45825;-81
2023/09/28 07:03:16;;;;;;;;;3.67;3.67;;;;;;;;5037790;28;47236;-80
2023/09/28 07:05:41;;;;;;;;;9.33;5.00;;;;;;;;5037227;28;47614;-79
2023/09/28 07:08:06;;;;;;;;;6.67;6.00;;;;;;;;5038212;28;45426;-81
2023/09/28 07:10:32;;;;;;;;;12.00;11.00;;;;;;;;5039187;28;45254;-81
2023/09/28 07:13:00;;;;;;;;;11.00;10.00;;;;;;;;5039443;28;45400;-80
2023/09/28 07:15:25;;;;;;;;;10.67;9.67;;;;;;;;5038209;28;45316;-79
2023/09/28 07:17:50;;;;;;;;;6.33;3.67;;;;;;;;5038385;28;45297;-79
2023/09/28 07:20:16;;;;;;;;;5.00;4.00;;;;;;;;5038366;28;45277;-80
2023/09/28 07:22:41;;;;;;;;;7.33;6.00;;;;;;;;5038635;28;45502;-80
2023/09/28 07:25:07;;;;;;;;;7.33;5.00;;;;;;;;5038339;28;45202;-80
2023/09/28 07:27:32;;;;;;;;;6.33;4.00;;;;;;;;5015228;28;45304;-80
2023/09/28 07:29:58;;;;;;;;;13.00;12.00;;;;;;;;5037286;28;45252;-80
2023/09/28 07:32:23;;;;;;;;;11.00;8.33;;;;;;;;5021881;28;46089;-79
2023/09/28 07:34:49;;;;;;;;;9.67;4.67;;;;;;;;5042521;28;47512;-79
2023/09/28 07:37:15;;;;;;;;;7.33;6.67;;;;;;;;5045247;28;45348;-79
2023/09/28 07:39:40;;;;;;;;;14.00;10.67;;;;;;;;5044582;28;45380;-81
2023/09/28 07:42:07;;;;;;;;;10.33;9.67;;;;;;;;5044341;28;45430;-79
2023/09/28 07:44:32;;;;;;;;;7.67;6.67;;;;;;;;5043671;28;46159;-79
2023/09/28 07:46:57;;;;;;;;;4.33;2.00;;;;;;;;5042352;28;45292;-80
2023/09/28 07:49:23;;;;;;;;;3.67;3.67;;;;;;;;5023980;28;45369;-78
2023/09/28 07:51:48;;;;;;;;;3.33;2.00;;;;;;;;5041163;28;45309;-81
2023/09/28 07:54:13;;;;;;;;;4.00;3.33;;;;;;;;5042268;28;46693;-81
2023/09/28 07:56:38;;;;;;;;;4.00;3.00;;;;;;;;5041103;28;45467;-79
2023/09/28 07:59:04;;;;;;;;;7.00;7.00;;;;;;;;5023850;28;45310;-80
2023/09/28 08:01:29;;;;;;;;;7.67;6.00;;;;;;;;5042191;28;45333;-80
2023/09/28 08:03:55;;;;;;;;;15.67;13.33;;;;;;;;5042483;28;45430;-79
2023/09/28 08:06:20;;;;;;;;;4.33;3.00;;;;;;;;5041255;28;45166;-80
2023/09/28 08:08:45;;;;;;;;;2.33;2.33;;;;;;;;5023626;28;45959;-79
2023/09/28 08:11:11;;;;;;;;;3.00;3.00;;;;;;;;5041460;28;45301;-78
2023/09/28 08:13:36;;;;;;;;;7.00;6.33;;;;;;;;5041356;28;45806;-79
2023/09/28 08:16:01;;;;;;;;;5.67;4.00;;;;;;;;5023544;28;45309;-79
2023/09/28 08:18:27;;;;;;;;;7.33;5.67;;;;;;;;5041624;28;45277;-80
2023/09/28 08:20:52;;;;;;;;;3.33;3.33;;;;;;;;5041168;28;45268;-82
2023/09/28 08:23:18;;;;;;;;;5.25;4.50;;;;;;;;5026313;28;48156;-79
2023/09/28 08:25:43;;;;;;;;;3.25;3.00;;;;;;;;5041432;28;45488;-78
2023/09/28 08:28:09;;;;;;;;;4.67;3.33;;;;;;;;5041489;28;45256;-79
2023/09/28 08:30:34;;;;;;;;;2.67;2.00;;;;;;;;5022114;28;45506;-79
2023/09/28 08:32:59;;;;;;;;;5.33;4.00;;;;;;;;5021302;28;45354;-77
2023/09/28 08:35:24;;;;;;;;;5.33;4.67;;;;;;;;5020654;28;45424;-79
2023/09/28 08:37:50;;;;;;;;;11.33;7.33;;;;;;;;5021390;28;45352;-80
2023/09/28 08:40:15;;;;;;;;;5.67;5.00;;;;;;;;5021259;28;45471;-79
2023/09/28 08:42:43;;;;;;;;;7.33;5.00;;;;;;;;5021146;28;45324;-80
2023/09/28 08:45:10;;;;;;;;;4.00;4.00;;;;;;;;5019858;28;45304;-78
2023/09/28 08:47:41;;;;;;;;;6.00;5.00;;;;;;;;5021131;28;45254;-80
2023/09/28 08:50:08;;;;;;;;;4.00;3.00;;;;;;;;5019959;28;45528;-79
2023/09/28 08:52:34;;;;;;;;;6.67;6.00;;;;;;;;5020759;28;45416;-81
2023/09/28 08:54:59;;;;;;;;;5.67;4.67;;;;;;;;5007593;28;45978;-81
2023/09/28 08:57:27;;;;;;;;;6.67;3.67;;;;;;;;5041082;28;45250;-81
2023/09/28 08:59:52;;;;;;;;;3.67;3.67;;;;;;;;5040448;28;45474;-81
2023/09/28 09:02:18;;;;;;;;;5.00;3.67;;;;;;;;5040739;28;46230;-80
2023/09/28 09:04:43;;;;;;;;;8.00;6.33;;;;;;;;5026684;28;45266;-79
2023/09/28 09:07:09;;;;;;;;;6.67;5.00;;;;;;;;5020417;28;45217;-80
2023/09/28 09:09:40;;;;;;;;;6.00;6.00;;;;;;;;5020467;28;45253;-79
2023/09/28 09:12:09;;;;;;;;;7.00;4.00;;;;;;;;5013049;28;47640;-78
2023/09/28 09:14:34;;;;;;;;;3.67;3.67;;;;;;;;5039932;28;45587;-80
2023/09/28 09:17:00;;;;;;;;;7.00;4.67;;;;;;;;5019984;28;45469;-78
2023/09/28 09:19:28;;;;;;;;;5.00;3.00;;;;;;;;5038031;28;45473;-84
2023/09/28 09:21:54;;;;;;;;;7.00;5.67;;;;;;;;5039622;28;46863;-79
2023/09/28 09:24:19;;;;;;;;;8.00;6.00;;;;;;;;5039795;28;45379;-78
2023/09/28 09:26:45;;;;;;;;;6.33;5.67;;;;;;;;5022689;28;45358;-77
2023/09/28 09:29:11;;;;;;;;;3.33;3.00;;;;;;;;5040833;28;45214;-77
2023/09/28 09:31:39;;;;;;;;;6.33;6.33;;;;;;;;5039833;28;46573;-78
2023/09/28 09:34:04;;;;;;;;;5.33;5.00;;;;;;;;5039313;28;45710;-78
2023/09/28 09:36:29;;;;;;;;;7.00;6.67;;;;;;;;5025111;28;45365;-80
2023/09/28 09:38:56;;;;;;;;;4.67;4.67;;;;;;;;5022586;28;47146;-78
2023/09/28 09:41:21;;;;;;;;;8.00;7.33;;;;;;;;5039236;28;46274;-79
2023/09/28 09:43:49;;;;;;;;;7.00;6.00;;;;;;;;5039680;28;45360;-80
2023/09/28 09:46:14;;;;;;;;;7.00;4.33;;;;;;;;5037202;28;45337;-81
2023/09/28 09:48:40;;;;;;;;;6.00;5.00;;;;;;;;5040125;28;45450;-79
2023/09/28 09:51:09;;;;;;;;;3.67;3.33;;;;;;;;5040782;28;46123;-80
2023/09/28 09:53:35;;;;;;;;;6.00;4.00;;;;;;;;5015346;28;45466;-79
2023/09/28 09:56:01;;;;;;;;;4.67;4.67;;;;;;;;5040095;28;45300;-79
2023/09/28 09:58:35;;;;;;;;;6.00;5.00;;;;;;;;5040887;28;45482;-78
2023/09/28 10:01:01;;;;;;;;;3.67;3.33;;;;;;;;5046035;28;45450;-79
2023/09/28 10:03:28;;;;;;;;;6.00;4.25;;;;;;;;5040851;28;45320;-78
2023/09/28 10:05:55;;;;;;;;;5.50;4.00;;;;;;;;5038033;28;45408;-81
2023/09/28 10:08:21;;;;;;;;;3.50;3.50;;;;;;;;5040194;28;45270;-79
2023/09/28 10:10:46;;;;;;;;;6.25;5.00;;;;;;;;5022711;28;47182;-80
2023/09/28 10:13:14;;;;;;;;;4.00;4.00;;;;;;;;5039501;28;45269;-85
2023/09/28 10:15:39;;;;;;;;;7.00;4.75;;;;;;;;5021959;28;45493;-83
2023/09/28 10:18:06;;;;;;;;;3.67;3.67;;;;;;;;5021919;28;46160;-82
2023/09/28 10:20:32;;;;;;;;;3.00;3.00;;;;;;;;5038862;28;45437;-81
2023/09/28 10:23:10;;;;;;;;;6.00;4.00;;;;;;;;5022571;28;45975;-82
2023/09/28 10:25:51;;;;;;;;;4.75;4.25;;;;;;;;5014761;28;45418;-83
2023/09/28 10:28:17;;;;;;;;;5.00;4.50;;;;;;;;5035250;28;45384;-77
2023/09/28 10:30:42;;;;;;;;;5.50;5.50;;;;;;;;5023554;28;45365;-79
2023/09/28 10:33:12;;;;;;;;;5.67;4.00;;;;;;;;5019535;28;45439;-78
2023/09/28 10:35:37;;;;;;;;;3.00;3.00;;;;;;;;5026377;28;45201;-77
2023/09/28 10:38:22;;;;;;;;;3.00;2.00;;;;;;;;5039068;28;45210;-78
2023/09/28 10:40:49;;;;;;;;;3.25;3.25;;;;;;;;5020955;28;48231;-77
2023/09/28 10:43:44;;;;;;;;;4.33;3.00;;;;;;;;5023585;28;45869;-78
2023/09/28 10:46:09;;;;;;;;;3.50;2.75;;;;;;;;5025841;28;45442;-79
2023/09/28 10:48:41;;;;;;;;;4.75;3.25;;;;;;;;5037826;28;46355;-76
2023/09/28 10:51:11;;;;;;;;;4.75;3.00;;;;;;;;5038467;28;46131;-79
2023/09/28 10:53:36;;;;;;;;;1.75;1.75;;;;;;;;5034169;28;45491;-79
2023/09/28 10:56:01;;;;;;;;;1.00;1.00;;;;;;;;5035042;28;45552;-77
2023/09/28 10:58:27;;;;;;;;;4.00;3.00;;;;;;;;5020841;28;45377;-78
2023/09/28 11:00:52;;;;;;;;;4.00;3.00;;;;;;;;5033558;28;48110;-79
2023/09/28 11:03:17;;;;;;;;;4.00;2.50;;;;;;;;5039246;28;45363;-80
2023/09/28 11:05:42;;;;;;;;;4.50;2.25;;;;;;;;5039497;28;45326;-79
2023/09/28 11:08:08;;;;;;;;;2.50;2.50;;;;;;;;5045241;28;45379;-79
2023/09/28 11:10:33;;;;;;;;;5.25;5.25;;;;;;;;5044711;28;46226;-79
2023/09/28 11:12:59;;;;;;;;;4.50;3.75;;;;;;;;5043151;28;45345;-79
2023/09/28 11:15:24;;;;;;;;;3.50;2.00;;;;;;;;5043061;28;45361;-79
2023/09/28 11:17:50;;;;;;;;;3.50;3.00;;;;;;;;5043093;28;45351;-79
2023/09/28 11:20:15;;;;;;;;;5.00;3.50;;;;;;;;5043606;28;45270;-79
2023/09/28 11:22:40;;;;;;;;;3.00;3.00;;;;;;;;5025618;28;45242;-79
2023/09/28 11:25:06;;;;;;;;;3.50;3.50;;;;;;;;5042081;28;45313;-79
2023/09/28 11:27:31;;;;;;;;;4.00;2.25;;;;;;;;5024888;28;46559;-79
2023/09/28 11:29:57;;;;;;;;;2.25;1.50;;;;;;;;5043172;28;45289;-78
2023/09/28 11:32:22;;;;;;;;;3.50;2.50;;;;;;;;5026680;28;45236;-79
2023/09/28 11:34:47;;;;;;;;;2.00;1.50;;;;;;;;5045749;28;45463;-77
2023/09/28 11:37:14;;;;;;;;;3.25;2.75;;;;;;;;5042710;28;45260;-78
2023/09/28 11:39:40;;;;;;;;;5.00;4.00;;;;;;;;5044229;28;46288;-76
2023/09/28 11:42:07;;;;;;;;;2.00;2.00;;;;;;;;5044736;28;45395;-78
2023/09/28 11:44:32;;;;;;;;;3.75;2.00;;;;;;;;5047033;28;45506;-79
2023/09/28 11:46:58;;;;;;;;;3.25;3.25;;;;;;;;5044884;28;45983;-77
2023/09/28 11:49:23;;;;;;;;;2.75;2.25;;;;;;;;5028349;28;47160;-78
2023/09/28 11:51:50;;;;;;;;;1.50;1.00;;;;;;;;5045223;28;45285;-78
2023/09/28 11:54:16;;;;;;;;;4.00;2.25;;;;;;;;5029206;28;45333;-78
2023/09/28 11:56:44;;;;;;;;;3.75;2.25;;;;;;;;5043344;28;45234;-77
2023/09/28 11:59:14;;;;;;;;;4.00;2.75;;;;;;;;5043824;28;48469;-76
2023/09/28 12:01:39;;;;;;;;;1.25;1.25;;;;;;;;5041760;28;45420;-76
2023/09/28 12:04:05;;;;;;;;;2.25;2.25;;;;;;;;5043036;28;45549;-77
2023/09/28 12:06:31;;;;;;;;;2.75;2.75;;;;;;;;5043984;28;45272;-79
2023/09/28 12:08:56;;;;;;;;;3.75;2.50;;;;;;;;5043374;28;45924;-77
2023/09/28 12:11:21;;;;;;;;;4.50;2.50;;;;;;;;5043757;28;45219;-78
2023/09/28 12:13:46;;;;;;;;;3.75;2.50;;;;;;;;5026338;28;45247;-79
2023/09/28 12:16:12;;;;;;;;;3.50;2.25;;;;;;;;5042637;28;45183;-79
2023/09/28 12:18:37;;;;;;;;;4.25;2.25;;;;;;;;5042520;28;45334;-79
2023/09/28 12:21:02;;;;;;;;;3.00;2.75;;;;;;;;5022527;28;46011;-79
2023/09/28 12:23:28;;;;;;;;;3.50;3.50;;;;;;;;5039548;28;45553;-79
2023/09/28 12:25:54;;;;;;;;;2.00;2.00;;;;;;;;5034752;28;46335;-77
2023/09/28 12:28:19;;;;;;;;;3.00;3.00;;;;;;;;5042248;28;45516;-79
2023/09/28 12:30:44;;;;;;;;;3.25;2.75;;;;;;;;5045022;28;45290;-78
2023/09/28 12:33:10;;;;;;;;;1.75;1.75;;;;;;;;5036120;28;45504;-76
2023/09/28 12:35:36;;;;;;;;;2.25;1.00;;;;;;;;5046393;28;45408;-78
2023/09/28 12:38:04;;;;;;;;;3.00;3.00;;;;;;;;5032315;28;47476;-79
2023/09/28 12:40:33;;;;;;;;;2.75;1.50;;;;;;;;5027222;28;45561;-78
2023/09/28 12:42:59;;;;;;;;;3.25;1.50;;;;;;;;5040635;28;45335;-78
2023/09/28 12:45:25;;;;;;;;;2.75;2.75;;;;;;;;5040974;28;45435;-79
2023/09/28 12:47:50;;;;;;;;;2.00;2.00;;;;;;;;5022496;28;48234;-79
2023/09/28 12:50:16;;;;;;;;;3.00;2.25;;;;;;;;5042064;28;45356;-79
2023/09/28 12:52:41;;;;;;;;;4.50;2.00;;;;;;;;5025490;28;45316;-79
2023/09/28 12:55:07;;;;;;;;;1.75;1.75;;;;;;;;5045733;28;45468;-79
2023/09/28 12:57:34;;;;;;;;;2.50;1.75;;;;;;;;5043574;28;46656;-79
2023/09/28 12:59:59;;;;;;;;;0.00;0.00;;;;;;;;5042193;28;45352;-79
2023/09/28 13:02:24;;;;;;;;;3.00;2.00;;;;;;;;5042250;28;45234;-79
2023/09/28 13:04:50;;;;;;;;;2.00;1.00;;;;;;;;5040226;28;45510;-79
2023/09/28 13:07:16;;;;;;;;;3.75;2.00;;;;;;;;5040808;28;45313;-78
2023/09/28 13:09:42;;;;;;;;;1.00;1.00;;;;;;;;5026698;28;45207;-78
2023/09/28 13:12:08;;;;;;;;;2.25;2.25;;;;;;;;5039228;28;45273;-79
2023/09/28 13:14:34;;;;;;;;;2.00;2.00;;;;;;;;5039798;28;45459;-79
2023/09/28 13:16:59;;;;;;;;;3.75;2.00;;;;;;;;5039800;28;45960;-78
2023/09/28 13:19:28;;;;;;;;;2.25;2.25;;;;;;;;5039527;28;45372;-79
2023/09/28 13:21:57;;;;;;;;;1.50;1.50;;;;;;;;5040957;28;45352;-79
2023/09/28 13:24:23;;;;;;;;;2.25;1.75;;;;;;;;5024274;28;47156;-79
2023/09/28 13:26:49;;;;;;;;;3.00;3.00;;;;;;;;5040488;28;45324;-79
2023/09/28 13:29:16;;;;;;;;;3.75;2.00;;;;;;;;5038406;28;45269;-80
2023/09/28 13:31:47;;;;;;;;;1.00;1.00;;;;;;;;5041435;28;45396;-78
2023/09/28 13:34:14;;;;;;;;;3.25;3.25;;;;;;;;5041388;28;45494;-80
2023/09/28 13:36:39;;;;;;;;;2.75;2.75;;;;;;;;5024502;28;46433;-79
2023/09/28 13:39:04;;;;;;;;;1.75;1.75;;;;;;;;5041660;28;45309;-79
2023/09/28 13:41:30;;;;;;;;;1.00;1.00;;;;;;;;5041297;28;45147;-79
2023/09/28 13:43:56;;;;;;;;;2.00;2.00;;;;;;;;5042574;28;45353;-79
2023/09/28 13:46:21;;;;;;;;;1.50;1.50;;;;;;;;5023876;28;47399;-80
2023/09/28 13:48:46;;;;;;;;;2.75;2.75;;;;;;;;5039691;28;45265;-80
2023/09/28 13:51:13;;;;;;;;;1.75;1.75;;;;;;;;5040529;28;45503;-80
2023/09/28 13:53:38;;;;;;;;;3.50;2.50;;;;;;;;5041533;28;45428;-79
2023/09/28 13:56:04;;;;;;;;;3.25;1.50;;;;;;;;5040389;28;46141;-79
2023/09/28 13:58:31;;;;;;;;;1.00;1.00;;;;;;;;5022693;28;45636;-79
2023/09/28 14:00:56;;;;;;;;;2.25;2.25;;;;;;;;5025004;28;45269;-79
2023/09/28 14:03:21;;;;;;;;;2.75;2.25;;;;;;;;5040959;28;45191;-79
2023/09/28 14:05:48;;;;;;;;;3.50;2.00;;;;;;;;5040364;28;45335;-80
2023/09/28 14:08:13;;;;;;;;;2.00;0.25;;;;;;;;5039968;28;45304;-79
2023/09/28 14:10:38;;;;;;;;;2.75;2.75;;;;;;;;5041124;28;45582;-79
2023/09/28 14:13:04;;;;;;;;;2.00;1.50;;;;;;;;5040247;28;45574;-79
2023/09/28 14:15:29;;;;;;;;;1.25;1.25;;;;;;;;5039358;28;45337;-79
2023/09/28 14:17:55;;;;;;;;;2.75;2.75;;;;;;;;5020797;28;45281;-79
2023/09/28 14:20:20;;;;;;;;;1.75;1.75;;;;;;;;5040461;28;45436;-78
2023/09/28 14:22:49;;;;;;;;;1.75;1.75;;;;;;;;5027069;28;47348;-79
2023/09/28 14:25:15;;;;;;;;;1.00;1.00;;;;;;;;5044200;28;45439;-79
2023/09/28 14:27:40;;;;;;;;;1.00;1.00;;;;;;;;5038837;28;45273;-79